createdAt,value
2018-03-30T00:00:01.651Z,82.70
2018-03-30T00:02:29.756Z,82.70
2018-03-30T00:04:57.909Z,82.80
2018-03-30T00:07:26.063Z,82.90
2018-03-30T00:09:55.867Z,82.80
2018-03-30T00:12:23.974Z,82.80
2018-03-30T00:14:52.217Z,82.80
2018-03-30T00:17:21.301Z,82.30
2018-03-30T00:19:49.419Z,82.30
2018-03-30T00:22:17.544Z,82.40
2018-03-30T00:24:45.728Z,82.70
2018-03-30T00:27:13.899Z,82.70
2018-03-30T00:29:42.782Z,82.80
2018-03-30T00:32:10.912Z,82.70
2018-03-30T00:34:39.806Z,81.90
2018-03-30T00:37:08.735Z,82.90
2018-03-30T00:39:36.864Z,82.40
2018-03-30T00:42:04.949Z,82.90
2018-03-30T00:44:33.837Z,83.00
2018-03-30T00:47:02.821Z,83.10
2018-03-30T00:49:31.756Z,83.30
2018-03-30T00:51:59.874Z,83.30
2018-03-30T00:54:28.094Z,83.40
2018-03-30T00:56:57.057Z,83.20
2018-03-30T00:59:25.950Z,83.20
2018-03-30T01:01:54.862Z,82.80
2018-03-30T01:04:23.861Z,82.80
2018-03-30T01:06:51.988Z,82.70
2018-03-30T01:09:20.858Z,83.10
2018-03-30T01:11:48.993Z,83.00
2018-03-30T01:14:17.144Z,83.00
2018-03-30T01:16:45.335Z,83.10
2018-03-30T01:19:13.424Z,83.10
2018-03-30T01:21:41.674Z,83.10
2018-03-30T01:24:09.769Z,83.20
2018-03-30T01:26:37.993Z,83.30
2018-03-30T01:29:06.188Z,83.30
2018-03-30T01:31:35.057Z,83.60
2018-03-30T01:34:04.050Z,83.50
2018-03-30T01:36:32.931Z,83.80
2018-03-30T01:39:01.949Z,83.70
2018-03-30T01:41:30.056Z,83.70
2018-03-30T01:43:58.296Z,83.40
2018-03-30T01:46:26.394Z,83.60
2018-03-30T01:48:54.537Z,83.60
2018-03-30T01:51:22.708Z,83.40
2018-03-30T01:53:51.570Z,82.80
2018-03-30T01:56:20.453Z,83.20
2018-03-30T01:58:49.334Z,83.10
2018-03-30T02:01:17.505Z,83.00
2018-03-30T02:03:46.438Z,83.00
2018-03-30T02:06:15.385Z,83.10
2018-03-30T02:08:44.318Z,83.30
2018-03-30T02:11:13.308Z,83.50
2018-03-30T02:13:42.196Z,83.80
2018-03-30T02:16:10.292Z,83.80
2018-03-30T02:18:38.453Z,83.90
2018-03-30T02:21:06.568Z,83.90
2018-03-30T02:23:36.017Z,83.60
2018-03-30T02:26:04.394Z,83.50
2018-03-30T02:28:32.477Z,83.30
2018-03-30T02:31:00.608Z,83.40
2018-03-30T02:33:29.499Z,83.20
2018-03-30T02:35:57.613Z,83.20
2018-03-30T02:38:25.719Z,83.10
2018-03-30T02:40:53.851Z,83.20
2018-03-30T02:43:21.953Z,83.40
2018-03-30T02:45:50.853Z,83.60
2018-03-30T02:48:19.862Z,83.60
2018-03-30T02:50:48.038Z,83.60
2018-03-30T02:53:17.062Z,83.80
2018-03-30T02:55:45.228Z,83.80
2018-03-30T02:58:13.400Z,83.60
2018-03-30T03:00:41.500Z,83.60
2018-03-30T03:03:09.645Z,84.00
2018-03-30T03:05:37.745Z,84.00
2018-03-30T03:08:07.373Z,84.20
2018-03-30T03:10:36.307Z,84.50
2018-03-30T03:13:06.421Z,84.60
2018-03-30T03:15:35.414Z,84.40
2018-03-30T03:18:04.273Z,84.20
2018-03-30T03:20:33.294Z,83.90
2018-03-30T03:23:01.466Z,83.90
2018-03-30T03:25:30.355Z,83.50
2018-03-30T03:27:58.508Z,83.50
2018-03-30T03:30:27.623Z,83.90
2018-03-30T03:32:57.816Z,84.20
2018-03-30T03:35:25.913Z,84.20
2018-03-30T03:37:54.096Z,84.00
2018-03-30T03:40:22.193Z,83.80
2018-03-30T03:42:50.430Z,84.10
2018-03-30T03:45:18.532Z,84.10
2018-03-30T03:47:46.658Z,84.00
2018-03-30T03:50:14.778Z,83.80
2018-03-30T03:52:42.908Z,83.90
2018-03-30T03:55:11.156Z,83.90
2018-03-30T03:57:40.161Z,83.90
2018-03-30T04:00:08.352Z,83.90
2018-03-30T04:02:36.529Z,83.80
2018-03-30T04:05:04.645Z,83.90
2018-03-30T04:07:34.376Z,84.30
2018-03-30T04:10:03.249Z,84.40
2018-03-30T04:12:31.424Z,84.40
2018-03-30T04:15:00.316Z,85.10
2018-03-30T04:17:29.211Z,85.10
2018-03-30T04:19:58.100Z,84.60
2018-03-30T04:22:27.027Z,84.40
2018-03-30T04:24:55.160Z,85.00
2018-03-30T04:27:30.604Z,84.40
2018-03-30T04:29:58.730Z,84.40
2018-03-30T04:32:26.832Z,84.30
2018-03-30T04:34:54.957Z,84.30
2018-03-30T04:37:23.072Z,84.60
2018-03-30T04:39:51.202Z,84.40
2018-03-30T04:42:20.598Z,84.40
2018-03-30T04:44:48.799Z,84.30
2018-03-30T04:47:16.957Z,84.00
2018-03-30T04:49:45.215Z,84.00
2018-03-30T04:52:13.304Z,83.90
2018-03-30T04:54:41.568Z,84.00
2018-03-30T04:57:09.672Z,84.20
2018-03-30T04:59:37.811Z,84.30
2018-03-30T05:02:05.899Z,84.50
2018-03-30T05:04:34.013Z,84.60
2018-03-30T05:07:03.042Z,84.70
2018-03-30T05:09:31.137Z,84.70
2018-03-30T05:11:59.347Z,84.80
2018-03-30T05:14:28.233Z,85.40
2018-03-30T05:16:57.799Z,85.80
2018-03-30T05:19:25.932Z,85.10
2018-03-30T05:21:54.858Z,84.80
2018-03-30T05:24:22.984Z,84.80
2018-03-30T05:26:51.184Z,85.00
2018-03-30T05:29:20.173Z,85.70
2018-03-30T05:31:49.143Z,85.70
2018-03-30T05:34:18.053Z,86.00
2018-03-30T05:36:46.160Z,85.90
2018-03-30T05:39:14.282Z,86.20
2018-03-30T05:41:42.472Z,86.70
2018-03-30T05:44:10.604Z,87.20
2018-03-30T05:46:39.530Z,88.10
2018-03-30T05:49:08.381Z,88.30
2018-03-30T05:51:37.286Z,88.30
2018-03-30T05:54:06.202Z,88.20
2018-03-30T05:56:34.329Z,88.10
2018-03-30T05:59:03.212Z,87.70
2018-03-30T06:01:31.347Z,87.70
2018-03-30T06:03:59.563Z,87.80
2018-03-30T06:06:28.457Z,88.00
2018-03-30T06:08:57.341Z,87.70
2018-03-30T06:11:25.575Z,87.70
2018-03-30T06:13:53.674Z,87.70
2018-03-30T06:16:21.858Z,87.60
2018-03-30T06:18:50.752Z,87.90
2018-03-30T06:21:19.682Z,87.10
2018-03-30T06:23:47.794Z,87.10
2018-03-30T06:26:15.918Z,86.80
2018-03-30T06:28:44.031Z,86.40
2018-03-30T06:31:12.164Z,86.40
2018-03-30T06:33:40.271Z,86.10
2018-03-30T06:36:08.469Z,85.90
2018-03-30T06:38:37.361Z,86.00
2018-03-30T06:41:06.259Z,85.00
2018-03-30T06:43:35.196Z,84.30
2018-03-30T06:46:03.293Z,84.50
2018-03-30T06:48:31.414Z,84.60
2018-03-30T06:50:59.602Z,84.70
2018-03-30T06:53:27.765Z,85.00
2018-03-30T06:55:56.657Z,85.00
2018-03-30T06:58:24.764Z,85.00
2018-03-30T07:00:53.100Z,84.90
2018-03-30T07:03:21.988Z,84.90
2018-03-30T07:05:50.164Z,84.90
2018-03-30T07:08:18.271Z,84.70
2018-03-30T07:10:46.400Z,84.40
2018-03-30T07:13:14.747Z,83.90
2018-03-30T07:15:42.982Z,83.70
2018-03-30T07:18:11.206Z,83.30
2018-03-30T07:20:40.201Z,81.50
2018-03-30T07:23:09.322Z,81.40
2018-03-30T07:25:37.417Z,81.40
2018-03-30T07:28:05.565Z,80.40
2018-03-30T07:30:33.732Z,79.50
2018-03-30T07:33:01.886Z,79.30
2018-03-30T07:35:29.995Z,79.20
2018-03-30T07:37:58.133Z,80.00
2018-03-30T07:40:26.316Z,79.50
2018-03-30T07:42:54.463Z,79.10
2018-03-30T07:45:23.373Z,79.80
2018-03-30T07:47:51.469Z,79.80
2018-03-30T07:50:19.721Z,79.20
2018-03-30T07:52:48.610Z,77.80
2018-03-30T07:55:16.888Z,77.80
2018-03-30T07:57:44.968Z,78.20
2018-03-30T08:00:13.229Z,78.10
2018-03-30T08:02:41.360Z,78.30
2018-03-30T08:05:10.292Z,78.60
2018-03-30T08:07:38.413Z,78.50
2018-03-30T08:10:06.557Z,77.30
2018-03-30T08:12:34.692Z,76.70
2018-03-30T08:15:02.884Z,77.30
2018-03-30T08:17:31.048Z,75.90
2018-03-30T08:19:59.950Z,75.90
2018-03-30T08:22:28.142Z,75.80
2018-03-30T08:24:56.367Z,77.00
2018-03-30T08:27:24.475Z,75.00
2018-03-30T08:29:52.732Z,74.10
2018-03-30T08:32:20.904Z,73.80
2018-03-30T08:34:49.772Z,74.20
2018-03-30T08:37:18.783Z,73.90
2018-03-30T08:39:46.920Z,73.80
2018-03-30T08:42:15.041Z,72.10
2018-03-30T08:44:43.163Z,73.30
2018-03-30T08:47:12.064Z,73.10
2018-03-30T08:49:40.174Z,72.90
2018-03-30T08:52:08.314Z,73.20
2018-03-30T08:54:37.320Z,72.20
2018-03-30T08:57:06.207Z,71.90
2018-03-30T08:59:34.356Z,71.90
2018-03-30T09:02:03.279Z,72.80
2018-03-30T09:04:31.456Z,72.80
2018-03-30T09:06:59.591Z,71.90
2018-03-30T09:09:28.492Z,71.60
2018-03-30T09:11:57.494Z,70.80
2018-03-30T09:14:25.629Z,70.80
2018-03-30T09:16:54.559Z,69.90
2018-03-30T09:19:22.729Z,69.90
2018-03-30T09:21:51.596Z,70.40
2018-03-30T09:24:20.493Z,68.70
2018-03-30T09:26:48.766Z,68.70
2018-03-30T09:29:16.909Z,68.20
2018-03-30T09:31:45.044Z,68.00
2018-03-30T09:34:13.196Z,66.40
2018-03-30T09:36:41.306Z,65.30
2018-03-30T09:39:09.459Z,64.70
2018-03-30T09:41:37.816Z,64.80
2018-03-30T09:44:06.806Z,62.40
2018-03-30T09:46:34.946Z,62.50
2018-03-30T09:49:03.131Z,62.50
2018-03-30T09:51:32.225Z,60.20
2018-03-30T09:54:00.416Z,60.30
2018-03-30T09:56:28.541Z,58.20
2018-03-30T09:58:57.478Z,57.00
2018-03-30T10:01:25.650Z,56.60
2018-03-30T10:03:53.843Z,57.30
2018-03-30T10:06:22.005Z,57.10
2018-03-30T10:11:31.812Z,58.40
2018-03-30T10:14:00.750Z,59.90
2018-03-30T10:16:28.866Z,59.90
2018-03-30T10:18:57.014Z,57.20
2018-03-30T10:21:25.164Z,54.80
2018-03-30T10:23:53.337Z,51.20
2018-03-30T10:26:21.501Z,50.10
2018-03-30T10:28:50.045Z,49.90
2018-03-30T10:31:18.946Z,50.50
2018-03-30T10:33:47.846Z,51.40
2018-03-30T10:36:15.970Z,51.40
2018-03-30T10:38:45.655Z,51.90
2018-03-30T10:41:13.833Z,51.80
2018-03-30T10:43:41.961Z,51.90
2018-03-30T10:46:10.105Z,51.60
2018-03-30T10:48:38.331Z,54.10
2018-03-30T10:51:06.497Z,52.70
2018-03-30T10:53:34.609Z,51.60
2018-03-30T10:56:02.844Z,50.90
2018-03-30T10:58:31.016Z,50.20
2018-03-30T11:00:59.149Z,45.60
2018-03-30T11:03:28.121Z,44.20
2018-03-30T11:05:56.346Z,44.10
2018-03-30T11:08:24.522Z,45.30
2018-03-30T11:10:52.645Z,46.10
2018-03-30T11:13:20.773Z,46.10
2018-03-30T11:15:49.724Z,49.30
2018-03-30T11:18:17.891Z,47.50
2018-03-30T11:20:46.550Z,48.60
2018-03-30T11:23:14.638Z,44.80
2018-03-30T11:25:43.637Z,42.10
2018-03-30T11:28:11.772Z,42.10
2018-03-30T11:30:39.935Z,42.70
2018-03-30T11:33:08.169Z,41.00
2018-03-30T11:35:37.074Z,38.30
2018-03-30T11:38:05.218Z,38.20
2018-03-30T11:40:34.141Z,38.30
2018-03-30T11:43:02.259Z,38.30
2018-03-30T11:45:30.484Z,39.50
2018-03-30T11:47:58.656Z,37.90
2018-03-30T11:50:26.826Z,37.70
2018-03-30T11:52:55.714Z,34.90
2018-03-30T11:55:23.888Z,34.80
2018-03-30T11:57:52.011Z,36.00
2018-03-30T12:00:20.223Z,36.60
2018-03-30T12:02:48.405Z,36.80
2018-03-30T12:05:16.579Z,36.30
2018-03-30T12:07:44.694Z,35.00
2018-03-30T12:10:14.017Z,36.10
2018-03-30T12:12:42.981Z,36.20
2018-03-30T12:15:11.215Z,36.10
2018-03-30T12:17:39.388Z,36.90
2018-03-30T12:20:07.657Z,36.40
2018-03-30T12:22:35.782Z,36.90
2018-03-30T12:25:03.921Z,35.30
2018-03-30T12:27:32.737Z,34.60
2018-03-30T12:30:00.882Z,36.20
2018-03-30T12:32:29.130Z,34.50
2018-03-30T12:34:57.258Z,33.90
2018-03-30T12:37:25.400Z,32.80
2018-03-30T12:39:53.527Z,32.50
2018-03-30T12:42:21.700Z,33.70
2018-03-30T12:44:50.600Z,33.60
2018-03-30T12:47:18.884Z,33.60
2018-03-30T12:49:47.057Z,33.00
2018-03-30T12:52:15.912Z,36.70
2018-03-30T12:54:44.849Z,35.30
2018-03-30T12:57:12.955Z,35.40
2018-03-30T12:59:41.179Z,33.90
2018-03-30T13:02:09.301Z,32.60
2018-03-30T13:04:37.538Z,33.10
2018-03-30T13:07:05.653Z,31.50
2018-03-30T13:09:34.584Z,32.00
2018-03-30T13:12:02.714Z,31.90
2018-03-30T13:14:30.864Z,32.30
2018-03-30T13:16:59.040Z,33.50
2018-03-30T13:19:27.177Z,33.60
2018-03-30T13:21:55.355Z,33.30
2018-03-30T13:24:23.476Z,31.70
2018-03-30T13:26:52.392Z,33.40
2018-03-30T13:29:21.302Z,33.00
2018-03-30T13:31:49.476Z,33.00
2018-03-30T13:34:17.644Z,31.90
2018-03-30T13:36:45.777Z,30.20
2018-03-30T13:39:14.785Z,29.20
2018-03-30T13:41:42.960Z,29.10
2018-03-30T13:44:11.078Z,28.10
2018-03-30T13:46:39.325Z,28.00
2018-03-30T13:49:07.447Z,27.40
2018-03-30T13:51:38.118Z,28.20
2018-03-30T13:54:08.918Z,27.10
2018-03-30T13:56:39.879Z,27.80
2018-03-30T13:59:11.538Z,26.70
2018-03-30T14:01:39.705Z,26.60
2018-03-30T14:07:22.763Z,25.60
2018-03-30T14:09:57.382Z,26.40
2018-03-30T14:12:29.410Z,25.20
2018-03-30T14:14:58.311Z,23.30
2018-03-30T14:17:30.108Z,23.20
2018-03-30T14:20:12.802Z,23.20
2018-03-30T14:22:44.432Z,23.20
2018-03-30T14:25:14.136Z,21.50
2018-03-30T14:28:08.861Z,21.80
2018-03-30T14:30:50.961Z,21.70
2018-03-30T14:33:19.099Z,21.10
2018-03-30T14:35:55.640Z,21.90
2018-03-30T14:38:30.528Z,21.90
2018-03-30T14:40:58.773Z,21.40
2018-03-30T14:43:43.375Z,20.80
2018-03-30T14:46:12.293Z,20.70
2018-03-30T14:48:42.953Z,21.90
2018-03-30T14:54:33.944Z,19.80
2018-03-30T14:57:05.763Z,19.70
2018-03-30T14:59:58.813Z,20.00
2018-03-30T15:02:29.515Z,20.20
2018-03-30T15:08:26.832Z,20.30
2018-03-30T15:11:00.831Z,21.00
2018-03-30T15:13:32.483Z,21.50
2018-03-30T15:16:22.056Z,21.00
2018-03-30T15:18:52.482Z,21.50
2018-03-30T15:21:26.054Z,21.20
2018-03-30T15:23:55.859Z,20.90
2018-03-30T15:26:30.218Z,21.60
2018-03-30T15:29:07.011Z,21.60
2018-03-30T15:31:37.109Z,21.60
2018-03-30T15:34:08.346Z,22.10
2018-03-30T15:39:53.746Z,20.60
2018-03-30T15:42:22.643Z,21.60
2018-03-30T15:44:53.374Z,22.00
2018-03-30T15:47:21.523Z,21.40
2018-03-30T15:49:50.534Z,21.30
2018-03-30T15:52:20.489Z,21.30
2018-03-30T15:54:48.631Z,21.30
2018-03-30T15:57:16.892Z,21.80
2018-03-30T15:59:45.008Z,21.80
2018-03-30T16:02:13.952Z,21.20
2018-03-30T16:04:42.068Z,21.10
2018-03-30T16:07:10.294Z,21.20
2018-03-30T16:09:41.122Z,21.80
2018-03-30T16:12:09.251Z,21.50
2018-03-30T16:14:37.469Z,21.80
2018-03-30T16:17:05.597Z,22.10
2018-03-30T16:19:33.407Z,22.30
2018-03-30T16:22:01.063Z,23.00
2018-03-30T16:24:29.543Z,26.50
2018-03-30T16:26:57.206Z,26.40
2018-03-30T16:29:25.689Z,30.40
2018-03-30T16:31:53.331Z,30.30
2018-03-30T16:34:21.113Z,32.80
2018-03-30T16:36:48.735Z,34.70
2018-03-30T16:39:16.451Z,36.90
2018-03-30T16:41:44.088Z,38.30
2018-03-30T16:44:12.569Z,40.30
2018-03-30T16:46:40.198Z,40.30
2018-03-30T16:49:07.904Z,40.80
2018-03-30T16:51:35.662Z,42.00
2018-03-30T16:54:03.419Z,42.50
2018-03-30T16:56:31.184Z,44.00
2018-03-30T16:58:58.816Z,45.70
2018-03-30T17:01:27.243Z,47.60
2018-03-30T17:03:54.983Z,47.50
2018-03-30T17:06:22.714Z,48.70
2018-03-30T17:08:51.130Z,50.60
2018-03-30T17:11:18.800Z,50.60
2018-03-30T17:13:46.640Z,51.30
2018-03-30T17:16:14.403Z,52.30
2018-03-30T17:18:42.074Z,53.70
2018-03-30T17:21:09.754Z,53.50
2018-03-30T17:23:37.428Z,55.20
2018-03-30T17:26:05.061Z,56.20
2018-03-30T17:28:32.807Z,55.60
2018-03-30T17:31:00.574Z,57.00
2018-03-30T17:33:28.256Z,57.30
2018-03-30T17:35:55.996Z,57.80
2018-03-30T17:38:23.661Z,57.70
2018-03-30T17:40:51.335Z,58.10
2018-03-30T17:43:19.996Z,58.50
2018-03-30T17:45:47.760Z,59.30
2018-03-30T17:48:15.415Z,60.10
2018-03-30T17:50:43.074Z,60.90
2018-03-30T17:53:10.848Z,60.50
2018-03-30T17:55:38.524Z,61.30
2018-03-30T17:58:06.278Z,61.60
2018-03-30T18:00:33.948Z,62.30
2018-03-30T18:03:01.751Z,63.20
2018-03-30T18:05:30.270Z,63.70
2018-03-30T18:07:57.930Z,63.40
2018-03-30T18:10:25.621Z,64.10
2018-03-30T18:12:53.286Z,65.00
2018-03-30T18:15:21.015Z,65.40
2018-03-30T18:17:48.669Z,65.70
2018-03-30T18:20:16.425Z,66.00
2018-03-30T18:22:44.110Z,66.40
2018-03-30T18:25:11.894Z,66.30
2018-03-30T18:27:39.623Z,66.60
2018-03-30T18:30:07.268Z,66.90
2018-03-30T18:32:34.948Z,67.10
2018-03-30T18:35:02.604Z,66.90
2018-03-30T18:37:30.303Z,67.50
2018-03-30T18:39:58.027Z,67.50
2018-03-30T18:42:25.685Z,67.80
2018-03-30T18:44:53.357Z,67.60
2018-03-30T18:47:21.017Z,68.10
2018-03-30T18:49:48.664Z,68.40
2018-03-30T18:52:16.323Z,68.50
2018-03-30T18:54:44.002Z,68.60
2018-03-30T18:57:11.653Z,68.70
2018-03-30T18:59:39.411Z,68.60
2018-03-30T19:02:07.040Z,68.50
2018-03-30T19:04:35.516Z,69.20
2018-03-30T19:07:03.184Z,69.20
2018-03-30T19:09:31.697Z,69.80
2018-03-30T19:11:59.323Z,69.80
2018-03-30T19:14:27.798Z,69.80
2018-03-30T19:16:55.441Z,69.80
2018-03-30T19:19:23.092Z,70.10
2018-03-30T19:21:50.756Z,70.10
2018-03-30T19:24:18.407Z,70.10
2018-03-30T19:26:46.076Z,70.40
2018-03-30T19:29:13.788Z,70.50
2018-03-30T19:31:41.451Z,70.50
2018-03-30T19:34:09.115Z,70.70
2018-03-30T19:36:37.559Z,71.20
2018-03-30T19:39:06.171Z,71.90
2018-03-30T19:41:33.833Z,71.80
2018-03-30T19:44:01.469Z,72.20
2018-03-30T19:46:29.929Z,72.10
2018-03-30T19:48:57.578Z,72.10
2018-03-30T19:51:25.288Z,72.00
2018-03-30T19:53:52.995Z,72.90
2018-03-30T19:56:20.659Z,72.20
2018-03-30T19:58:49.812Z,72.40
2018-03-30T20:01:17.513Z,71.40
2018-03-30T20:03:45.304Z,71.90
2018-03-30T20:06:13.774Z,70.60
2018-03-30T20:08:41.483Z,70.50
2018-03-30T20:11:09.148Z,70.60
2018-03-30T20:13:36.857Z,70.80
2018-03-30T20:16:04.497Z,70.80
2018-03-30T20:18:32.213Z,71.30
2018-03-30T20:21:00.630Z,71.60
2018-03-30T20:23:28.469Z,71.60
2018-03-30T20:25:56.116Z,71.50
2018-03-30T20:28:23.777Z,71.80
2018-03-30T20:30:51.455Z,72.10
2018-03-30T20:33:19.114Z,72.50
2018-03-30T20:35:46.783Z,72.80
2018-03-30T20:38:14.446Z,72.90
2018-03-30T20:40:42.197Z,73.40
2018-03-30T20:43:09.863Z,73.90
2018-03-30T20:45:37.505Z,74.20
2018-03-30T20:48:05.152Z,74.50
2018-03-30T20:50:32.919Z,75.00
2018-03-30T20:53:01.302Z,75.50
2018-03-30T20:55:29.063Z,75.50
2018-03-30T20:57:56.720Z,75.60
2018-03-30T21:00:24.376Z,75.70
2018-03-30T21:02:52.041Z,75.80
2018-03-30T21:05:19.678Z,76.00
2018-03-30T21:07:48.192Z,76.40
2018-03-30T21:10:15.839Z,76.30
2018-03-30T21:12:43.516Z,76.70
2018-03-30T21:15:11.263Z,77.00
2018-03-30T21:17:39.700Z,77.60
2018-03-30T21:20:07.403Z,77.60
2018-03-30T21:22:35.819Z,78.10
2018-03-30T21:25:03.475Z,78.10
2018-03-30T21:27:31.104Z,78.40
2018-03-30T21:29:58.779Z,78.70
2018-03-30T21:32:26.400Z,79.10
2018-03-30T21:34:54.716Z,79.40
2018-03-30T21:37:22.418Z,79.50
2018-03-30T21:39:50.085Z,79.80
2018-03-30T21:42:17.713Z,80.10
2018-03-30T21:44:45.437Z,80.40
2018-03-30T21:47:13.843Z,80.60
2018-03-30T21:49:41.575Z,80.60
2018-03-30T21:52:09.263Z,80.70
2018-03-30T21:54:36.908Z,80.40
2018-03-30T21:57:04.659Z,80.20
2018-03-30T21:59:32.429Z,79.70
2018-03-30T22:02:00.059Z,79.70
2018-03-30T22:04:28.545Z,80.10
2018-03-30T22:06:56.935Z,80.00
2018-03-30T22:09:24.702Z,80.00
2018-03-30T22:11:52.348Z,79.90
2018-03-30T22:14:20.019Z,79.90
2018-03-30T22:16:47.679Z,79.80
2018-03-30T22:19:15.347Z,79.90
2018-03-30T22:21:42.992Z,79.90
2018-03-30T22:24:10.659Z,79.70
2018-03-30T22:26:38.295Z,79.50
2018-03-30T22:29:06.801Z,79.20
2018-03-30T22:31:34.459Z,79.10
2018-03-30T22:34:02.119Z,79.20
2018-03-30T22:36:30.669Z,79.00
2018-03-30T22:38:59.181Z,79.00
2018-03-30T22:41:26.828Z,79.00
2018-03-30T22:43:55.237Z,79.00
2018-03-30T22:46:22.924Z,78.90
2018-03-30T22:48:50.534Z,79.00
2018-03-30T22:51:18.188Z,79.00
2018-03-30T22:53:45.856Z,79.20
2018-03-30T22:56:13.526Z,79.30
2018-03-30T22:58:41.179Z,79.40
2018-03-30T23:01:09.659Z,79.10
2018-03-30T23:03:38.140Z,79.20
2018-03-30T23:06:06.620Z,79.40
2018-03-30T23:08:34.997Z,79.40
2018-03-30T23:11:02.721Z,79.40
2018-03-30T23:13:30.391Z,79.40
2018-03-30T23:15:58.761Z,79.80
2018-03-30T23:18:27.277Z,79.80
2018-03-30T23:20:55.660Z,79.50
2018-03-30T23:23:23.289Z,79.50
2018-03-30T23:25:50.968Z,79.70
2018-03-30T23:28:19.346Z,79.80
2018-03-30T23:30:46.965Z,79.80
2018-03-30T23:33:14.669Z,79.80
2018-03-30T23:35:42.283Z,79.70
2018-03-30T23:38:10.709Z,79.90
2018-03-30T23:40:38.465Z,79.80
2018-03-30T23:43:06.837Z,79.40
2018-03-30T23:45:34.505Z,79.30
2018-03-30T23:48:02.163Z,79.20
2018-03-30T23:50:29.850Z,79.20
2018-03-30T23:52:57.483Z,79.20
2018-03-30T23:55:25.143Z,79.10
2018-03-30T23:57:52.767Z,79.00
